Terminal Aerodrome Forecast
Issued by NWS

Current Version | Previous Version | Text Only | Print | Product List | Glossary On
Versions: 1 2 3 4 5 6 7 8 9 10 11 12 13 14 15 16 17 18 19 20 21 22 23 24 25 26 27 28 29 30 31 32 33 34 35 36 37 38 39 40
000
FTAK31 PANC 221650 AAB
TAFADU
TAF AMD
PADU 221650Z 2217/2312 30010G20KT P6SM -SN OVC025
      TEMPO 2217/2220 3SM -SHSN BKN012 OVC025
     FM222000 33008G15KT P6SM FEW025 BKN120
     FM231000 14008KT P6SM SCT035 BKN100=

USA.gov is the U.S. government's official web portal to all federal, state and local government web resources and services.